createdAt,value
2019-03-13T00:00:25.498Z,1.80
2019-03-13T00:02:54.042Z,1.60
2019-03-13T00:05:22.495Z,1.50
2019-03-13T00:07:50.972Z,2.00
2019-03-13T00:10:19.489Z,1.87
2019-03-13T00:12:47.942Z,1.50
2019-03-13T00:15:16.635Z,1.60
2019-03-13T00:17:45.081Z,1.83
2019-03-13T00:20:13.885Z,1.70
2019-03-13T00:22:42.347Z,2.05
2019-03-13T00:25:11.155Z,2.00
2019-03-13T00:27:39.616Z,1.80
2019-03-13T00:30:10.129Z,1.87
2019-03-13T00:32:38.575Z,2.43
2019-03-13T00:35:08.769Z,2.00
2019-03-13T00:37:37.213Z,3.03
2019-03-13T00:40:08.747Z,2.07
2019-03-13T00:42:37.207Z,2.23
2019-03-13T00:45:08.506Z,2.02
2019-03-13T00:47:36.962Z,2.63
2019-03-13T00:50:08.293Z,2.63
2019-03-13T00:52:36.754Z,2.20
2019-03-13T00:55:06.243Z,2.40
2019-03-13T00:57:34.693Z,2.47
2019-03-13T01:00:04.069Z,2.60
2019-03-13T01:02:42.935Z,2.42
2019-03-13T01:05:13.089Z,2.63
2019-03-13T01:07:41.548Z,2.50
2019-03-13T01:10:10.123Z,2.33
2019-03-13T01:12:38.618Z,2.30
2019-03-13T01:15:08.995Z,2.60
2019-03-13T01:17:39.033Z,2.37
2019-03-13T01:20:09.127Z,2.70
2019-03-13T01:22:37.600Z,2.57
2019-03-13T01:25:08.492Z,3.00
2019-03-13T01:27:36.963Z,2.40
2019-03-13T01:30:08.594Z,2.40
2019-03-13T01:32:41.665Z,3.00
2019-03-13T01:35:14.313Z,2.93
2019-03-13T01:37:42.835Z,2.60
2019-03-13T01:40:11.827Z,2.97
2019-03-13T01:42:40.284Z,2.17
2019-03-13T01:45:10.195Z,2.50
2019-03-13T01:47:38.773Z,2.90
2019-03-13T01:50:09.872Z,2.37
2019-03-13T01:52:38.343Z,2.30
2019-03-13T01:55:08.541Z,2.50
2019-03-13T01:57:36.989Z,2.50
2019-03-13T02:00:08.527Z,2.50
2019-03-13T02:02:37.048Z,2.50
2019-03-13T02:05:05.953Z,2.47
2019-03-13T02:07:34.410Z,2.70
2019-03-13T02:10:03.021Z,2.77
2019-03-13T02:12:31.467Z,2.40
2019-03-13T02:14:59.918Z,2.50
2019-03-13T02:17:29.269Z,3.10
2019-03-13T02:19:57.726Z,2.80
2019-03-13T02:22:26.180Z,2.80
2019-03-13T02:24:54.660Z,2.97
2019-03-13T02:27:23.118Z,3.17
2019-03-13T02:29:51.581Z,3.60
2019-03-13T02:32:20.041Z,2.50
2019-03-13T02:34:48.513Z,2.83
2019-03-13T02:37:17.009Z,3.30
2019-03-13T02:39:45.505Z,3.87
2019-03-13T02:42:13.960Z,2.97
2019-03-13T02:44:42.420Z,3.23
2019-03-13T02:47:10.901Z,3.03
2019-03-13T02:49:39.365Z,3.17
2019-03-13T02:52:07.843Z,3.57
2019-03-13T02:54:36.297Z,3.60
2019-03-13T02:57:04.750Z,3.07
2019-03-13T02:59:33.219Z,3.53
2019-03-13T03:02:05.847Z,3.23
2019-03-13T03:04:34.386Z,4.20
2019-03-13T03:07:02.837Z,3.80
2019-03-13T03:09:31.309Z,3.87
2019-03-13T03:11:59.751Z,3.40
2019-03-13T03:14:28.222Z,3.87
2019-03-13T03:16:56.672Z,4.60
2019-03-13T03:19:25.198Z,4.60
2019-03-13T03:21:53.702Z,4.27
2019-03-13T03:24:22.242Z,4.40
2019-03-13T03:26:50.791Z,4.73
2019-03-13T03:29:19.357Z,4.87
2019-03-13T03:31:47.900Z,4.73
2019-03-13T03:34:16.522Z,5.20
2019-03-13T03:36:45.041Z,5.43
2019-03-13T03:39:13.489Z,4.70
2019-03-13T03:41:41.943Z,4.80
2019-03-13T03:44:10.485Z,5.27
2019-03-13T03:46:38.952Z,5.37
2019-03-13T03:49:07.406Z,4.50
2019-03-13T03:51:35.880Z,5.70
2019-03-13T03:54:04.727Z,5.70
2019-03-13T03:56:33.242Z,4.90
2019-03-13T03:59:01.723Z,5.43
2019-03-13T04:01:30.251Z,5.20
2019-03-13T04:04:01.519Z,4.77
2019-03-13T04:06:29.977Z,5.90
2019-03-13T04:08:58.437Z,4.83
2019-03-13T04:11:26.909Z,5.50
2019-03-13T04:13:55.444Z,5.47
2019-03-13T04:16:23.896Z,5.47
2019-03-13T04:18:52.356Z,5.90
2019-03-13T04:21:20.818Z,5.40
2019-03-13T04:23:49.283Z,6.27
2019-03-13T04:26:17.804Z,5.60
2019-03-13T04:28:46.323Z,5.10
2019-03-13T04:31:14.931Z,5.63
2019-03-13T04:33:48.764Z,5.17
2019-03-13T04:36:17.309Z,5.47
2019-03-13T04:38:45.785Z,4.87
2019-03-13T04:41:14.243Z,5.40
2019-03-13T04:43:46.829Z,5.23
2019-03-13T04:46:15.388Z,5.00
2019-03-13T04:48:43.835Z,4.93
2019-03-13T04:51:12.291Z,7.67
2019-03-13T04:53:40.777Z,4.90
2019-03-13T04:56:09.332Z,4.80
2019-03-13T04:58:37.839Z,5.60
2019-03-13T05:01:06.333Z,4.97
2019-03-13T05:03:34.861Z,5.70
2019-03-13T05:06:04.403Z,4.10
2019-03-13T05:08:45.142Z,5.43
2019-03-13T05:11:06.179Z,5.10
2019-03-13T05:13:34.705Z,5.40
2019-03-13T05:16:03.173Z,4.50
2019-03-13T05:18:31.656Z,4.47
2019-03-13T05:21:00.183Z,4.20
2019-03-13T05:23:28.745Z,4.67
2019-03-13T05:25:57.217Z,4.20
2019-03-13T05:28:25.684Z,4.57
2019-03-13T05:30:54.160Z,4.83
2019-03-13T05:33:22.665Z,4.60
2019-03-13T05:35:51.126Z,4.83
2019-03-13T05:38:19.723Z,5.40
2019-03-13T05:40:48.207Z,4.70
2019-03-13T05:43:16.788Z,4.40
2019-03-13T05:45:47.021Z,4.60
2019-03-13T05:48:15.499Z,3.43
2019-03-13T05:50:43.961Z,3.73
2019-03-13T05:53:12.429Z,3.47
2019-03-13T05:55:40.973Z,4.40
2019-03-13T05:58:09.499Z,3.80
2019-03-13T06:00:38.019Z,4.57
2019-03-13T06:03:06.562Z,4.30
2019-03-13T06:05:35.042Z,4.40
2019-03-13T06:08:03.590Z,3.50
2019-03-13T06:10:32.466Z,4.40
2019-03-13T06:13:00.949Z,3.63
2019-03-13T06:15:29.490Z,3.80
2019-03-13T06:17:58.013Z,3.50
2019-03-13T06:20:26.558Z,4.00
2019-03-13T06:22:55.205Z,4.47
2019-03-13T06:25:23.740Z,3.80
2019-03-13T06:27:52.714Z,4.93
2019-03-13T06:30:21.624Z,4.10
2019-03-13T06:32:50.224Z,4.17
2019-03-13T06:35:18.778Z,3.93
2019-03-13T06:37:47.256Z,4.53
2019-03-13T06:40:20.844Z,4.47
2019-03-13T06:42:49.343Z,4.00
2019-03-13T06:45:18.054Z,4.03
2019-03-13T06:47:46.538Z,3.03
2019-03-13T06:50:25.554Z,4.37
2019-03-13T06:52:56.300Z,4.00
2019-03-13T06:55:24.892Z,3.40
2019-03-13T06:57:53.438Z,4.80
2019-03-13T07:00:42.024Z,3.47
2019-03-13T07:03:16.724Z,4.63
2019-03-13T07:06:06.828Z,3.27
2019-03-13T07:08:48.748Z,3.57
2019-03-13T07:11:21.444Z,3.30
2019-03-13T07:14:11.265Z,3.30
2019-03-13T07:16:41.570Z,3.40
2019-03-13T07:19:27.684Z,2.73
2019-03-13T07:22:00.263Z,2.93
2019-03-13T07:24:44.963Z,3.37
2019-03-13T07:27:32.578Z,4.60
2019-03-13T07:30:18.441Z,2.87
2019-03-13T07:33:06.431Z,3.30
2019-03-13T07:35:39.561Z,3.20
2019-03-13T07:38:16.046Z,4.53
2019-03-13T07:40:49.144Z,3.27
2019-03-13T07:43:22.028Z,3.43
2019-03-13T07:46:04.011Z,2.83
2019-03-13T07:48:36.838Z,3.67
2019-03-13T07:51:09.943Z,3.23
2019-03-13T07:53:40.312Z,3.27
2019-03-13T07:56:10.479Z,4.63
2019-03-13T07:58:49.749Z,3.00
2019-03-13T08:01:19.949Z,4.20
2019-03-13T08:03:50.136Z,3.80
2019-03-13T08:06:27.175Z,3.60
2019-03-13T08:08:59.773Z,3.00
2019-03-13T08:11:35.809Z,3.80
2019-03-13T08:14:17.972Z,2.80
2019-03-13T08:17:04.181Z,3.47
2019-03-13T08:19:50.976Z,4.30
2019-03-13T08:22:32.645Z,2.67
2019-03-13T08:25:19.135Z,2.90
2019-03-13T08:28:08.707Z,2.90
2019-03-13T08:30:57.997Z,3.20
2019-03-13T08:33:47.723Z,3.57
2019-03-13T08:36:21.023Z,3.33
2019-03-13T08:39:01.179Z,2.97
2019-03-13T08:41:38.439Z,2.57
2019-03-13T08:44:08.531Z,2.93
2019-03-13T08:46:38.697Z,3.03
2019-03-13T08:49:14.573Z,3.30
2019-03-13T08:51:48.011Z,3.63
2019-03-13T08:54:21.165Z,3.53
2019-03-13T08:56:54.315Z,2.37
2019-03-13T08:59:39.520Z,3.93
2019-03-13T09:02:25.581Z,2.90
2019-03-13T09:04:55.687Z,2.57
2019-03-13T09:07:25.787Z,3.10
2019-03-13T09:10:13.751Z,4.37
2019-03-13T09:12:43.911Z,3.73
2019-03-13T09:15:22.775Z,2.97
2019-03-13T09:17:52.875Z,3.03
2019-03-13T09:20:39.155Z,3.17
2019-03-13T09:23:21.228Z,4.13
2019-03-13T09:25:57.373Z,3.43
2019-03-13T09:28:27.476Z,3.23
2019-03-13T09:31:13.984Z,2.60
2019-03-13T09:34:00.071Z,3.60
2019-03-13T09:36:30.198Z,3.03
2019-03-13T09:39:03.177Z,3.20
2019-03-13T09:41:45.511Z,3.00
2019-03-13T09:44:27.635Z,3.30
2019-03-13T09:47:14.055Z,3.00
2019-03-13T09:49:56.135Z,3.13
2019-03-13T09:52:26.398Z,3.30
2019-03-13T09:55:12.277Z,3.03
2019-03-13T09:57:58.256Z,4.23
2019-03-13T10:00:44.525Z,3.10
2019-03-13T10:03:17.672Z,2.63
2019-03-13T10:05:50.771Z,2.60
2019-03-13T10:08:23.737Z,2.90
2019-03-13T10:11:02.480Z,3.23
2019-03-13T10:13:38.173Z,3.27
2019-03-13T10:16:08.298Z,3.20
2019-03-13T10:18:54.667Z,2.67
2019-03-13T10:21:30.674Z,3.00
2019-03-13T10:24:00.857Z,3.77
2019-03-13T10:26:33.695Z,3.37
2019-03-13T10:29:03.810Z,3.00
2019-03-13T10:31:46.833Z,3.00
2019-03-13T10:34:31.750Z,4.17
2019-03-13T10:37:04.894Z,2.83
2019-03-13T10:39:43.743Z,3.10
2019-03-13T10:42:25.995Z,2.77
2019-03-13T10:45:04.830Z,2.90
2019-03-13T10:47:43.678Z,3.50
2019-03-13T10:50:14.620Z,3.33
2019-03-13T10:52:47.446Z,2.97
2019-03-13T10:55:26.522Z,3.10
2019-03-13T10:58:02.272Z,2.90
2019-03-13T11:00:32.423Z,4.80
2019-03-13T11:03:02.584Z,2.27
2019-03-13T11:05:41.641Z,2.67
2019-03-13T11:49:06.062Z,1.83
2019-03-13T11:51:44.906Z,2.70
2019-03-13T11:54:17.960Z,3.07
2019-03-13T11:56:59.836Z,2.20
2019-03-13T11:59:48.147Z,2.17
2019-03-13T12:02:18.249Z,2.20
2019-03-13T12:04:48.414Z,2.40
2019-03-13T12:07:21.213Z,1.80
2019-03-13T12:10:00.374Z,2.43
2019-03-13T12:12:33.610Z,2.30
2019-03-13T12:15:03.720Z,2.30
2019-03-13T12:17:38.387Z,1.70
2019-03-13T12:20:12.542Z,2.10
2019-03-13T12:22:51.416Z,2.20
2019-03-13T12:25:24.225Z,2.23
2019-03-13T12:27:59.992Z,2.40
2019-03-13T12:30:47.551Z,2.33
2019-03-13T12:33:17.711Z,2.30
2019-03-13T12:35:50.624Z,2.40
2019-03-13T12:38:37.501Z,2.77
2019-03-13T12:41:19.438Z,2.60
2019-03-13T12:43:51.443Z,2.67
2019-03-13T12:46:36.258Z,2.60
2019-03-13T12:49:15.775Z,2.40
2019-03-13T12:51:54.594Z,2.93
2019-03-13T12:54:24.723Z,2.70
2019-03-13T12:56:54.960Z,2.53
2019-03-13T12:59:25.221Z,2.60
2019-03-13T13:02:01.141Z,2.80
2019-03-13T13:04:46.981Z,3.43
2019-03-13T13:07:17.224Z,3.13
2019-03-13T13:10:03.049Z,2.63
2019-03-13T13:12:36.224Z,3.20
2019-03-13T13:15:09.388Z,2.77
2019-03-13T13:17:51.399Z,2.93
2019-03-13T13:20:19.988Z,2.93
2019-03-13T13:22:55.557Z,2.60
2019-03-13T13:25:24.191Z,2.40
2019-03-13T13:27:52.819Z,4.73
2019-03-13T13:30:21.515Z,3.37
2019-03-13T13:32:50.083Z,3.10
2019-03-13T13:35:18.614Z,2.33
2019-03-13T13:37:47.224Z,2.23
2019-03-13T13:40:17.387Z,2.27
2019-03-13T13:42:47.713Z,2.87
2019-03-13T13:45:34.247Z,2.50
2019-03-13T13:48:04.337Z,2.40
2019-03-13T13:50:32.953Z,2.63
2019-03-13T13:53:01.641Z,3.13
2019-03-13T13:55:30.245Z,3.17
2019-03-13T13:57:58.829Z,2.63
2019-03-13T14:00:27.344Z,2.40
2019-03-13T14:02:57.509Z,2.53
2019-03-13T14:05:25.965Z,1.90
2019-03-13T14:07:54.427Z,2.40
2019-03-13T14:10:22.965Z,2.40
2019-03-13T14:12:51.619Z,2.70
2019-03-13T14:15:20.120Z,2.87
2019-03-13T14:17:48.580Z,2.93
2019-03-13T14:20:17.115Z,2.77
2019-03-13T14:22:45.679Z,3.57
2019-03-13T14:25:14.809Z,3.00
2019-03-13T14:27:43.345Z,4.87
2019-03-13T14:30:22.339Z,2.93
2019-03-13T14:32:50.992Z,2.67
2019-03-13T14:35:19.738Z,2.40
2019-03-13T14:37:48.236Z,2.23
2019-03-13T14:40:20.309Z,2.43
2019-03-13T14:45:29.051Z,1.90
2019-03-13T14:51:25.385Z,2.40
2019-03-13T14:53:53.846Z,1.90
2019-03-13T14:56:22.338Z,1.67
2019-03-13T14:58:50.809Z,2.43
2019-03-13T15:01:19.337Z,2.47
2019-03-13T15:03:47.813Z,1.83
2019-03-13T15:06:20.767Z,1.93
2019-03-13T15:12:55.546Z,2.10
2019-03-13T15:19:03.892Z,1.73
2019-03-13T15:21:32.356Z,1.80
2019-03-13T15:24:00.809Z,1.70
2019-03-13T15:26:29.274Z,1.60
2019-03-13T15:28:57.754Z,1.70
2019-03-13T15:31:26.377Z,2.10
2019-03-13T15:40:02.805Z,1.90
2019-03-13T15:42:31.305Z,1.83
2019-03-13T15:44:59.826Z,1.80
2019-03-13T15:47:28.294Z,1.70
2019-03-13T15:49:56.772Z,1.90
2019-03-13T15:52:25.244Z,1.80
2019-03-13T15:54:53.792Z,2.03
2019-03-13T15:57:22.284Z,2.00
2019-03-13T15:59:50.794Z,1.93
2019-03-13T16:02:19.350Z,1.97
2019-03-13T16:04:47.912Z,2.00
2019-03-13T16:07:16.435Z,2.23
2019-03-13T16:09:46.743Z,2.30
2019-03-13T16:12:15.266Z,1.87
2019-03-13T16:17:59.600Z,2.03
2019-03-13T16:20:28.127Z,2.03
2019-03-13T16:23:02.092Z,1.90
2019-03-13T16:25:30.776Z,1.97
2019-03-13T16:27:59.770Z,2.00
2019-03-13T16:30:36.850Z,1.70
2019-03-13T16:33:05.388Z,2.10
2019-03-13T16:35:36.601Z,2.33
2019-03-13T16:38:05.265Z,2.23
2019-03-13T16:40:33.843Z,2.40
2019-03-13T16:43:02.391Z,2.23
2019-03-13T16:48:28.661Z,2.67
2019-03-13T16:50:57.149Z,2.87
2019-03-13T16:53:25.650Z,2.67
2019-03-13T16:58:43.512Z,3.10
2019-03-13T17:02:15.945Z,3.23
2019-03-13T17:04:44.405Z,2.90
2019-03-13T17:07:12.889Z,3.20
2019-03-13T17:09:41.355Z,3.60
2019-03-13T17:12:09.990Z,3.43
2019-03-13T17:14:38.477Z,3.33
2019-03-13T17:17:07.101Z,3.93
2019-03-13T17:19:35.581Z,3.30
2019-03-13T17:22:04.178Z,3.37
2019-03-13T17:24:32.656Z,3.30
2019-03-13T17:27:01.373Z,3.30
2019-03-13T17:29:30.091Z,3.33
2019-03-13T17:31:58.647Z,2.60
2019-03-13T17:34:30.123Z,2.87
2019-03-13T17:36:57.443Z,2.70
2019-03-13T17:39:26.068Z,3.23
2019-03-13T17:41:54.645Z,2.97
2019-03-13T17:44:23.261Z,3.23
2019-03-13T17:46:51.734Z,2.73
2019-03-13T17:49:20.454Z,2.80
2019-03-13T17:52:14.683Z,3.17
2019-03-13T17:54:46.527Z,3.20
2019-03-13T17:57:14.993Z,3.50
2019-03-13T17:59:43.479Z,3.20
2019-03-13T18:02:14.000Z,3.50
2019-03-13T18:04:45.541Z,3.27
2019-03-13T18:07:14.049Z,3.30
2019-03-13T18:09:42.526Z,3.30
2019-03-13T18:12:10.988Z,2.83
2019-03-13T18:25:18.324Z,2.90
2019-03-13T18:27:47.351Z,2.93
2019-03-13T18:30:26.943Z,2.40
2019-03-13T18:32:55.693Z,2.13
2019-03-13T18:35:25.989Z,2.13
2019-03-13T18:37:56.395Z,2.10
2019-03-13T18:40:25.564Z,2.00
2019-03-13T18:49:04.211Z,2.23
2019-03-13T18:51:32.692Z,2.00
2019-03-13T18:54:01.202Z,2.03
2019-03-13T18:56:29.688Z,2.13
2019-03-13T18:58:58.260Z,2.13
2019-03-13T19:01:29.757Z,1.93
2019-03-13T19:03:58.314Z,2.50
2019-03-13T19:06:26.863Z,2.00
2019-03-13T19:09:02.337Z,2.37
2019-03-13T19:30:13.448Z,2.93
2019-03-13T19:32:42.442Z,3.80
2019-03-13T19:35:16.689Z,2.77
2019-03-13T19:37:45.531Z,4.10
2019-03-13T19:40:38.744Z,3.60
2019-03-13T19:42:55.186Z,3.33
2019-03-13T19:45:42.443Z,3.00
2019-03-13T19:48:17.433Z,3.60
2019-03-13T19:50:46.087Z,2.43
2019-03-13T19:53:15.279Z,3.30
2019-03-13T19:58:31.922Z,3.10
2019-03-13T20:01:10.025Z,3.77
2019-03-13T20:03:38.512Z,3.70
2019-03-13T20:08:48.122Z,3.10
2019-03-13T20:11:16.649Z,3.40
2019-03-13T20:13:46.934Z,2.90
2019-03-13T20:16:15.422Z,4.37
2019-03-13T20:18:44.183Z,3.37
2019-03-13T20:21:16.134Z,2.73
2019-03-13T20:23:44.650Z,3.00
2019-03-13T20:26:13.185Z,3.67
2019-03-13T20:28:41.876Z,4.20
2019-03-13T20:31:10.430Z,3.10
2019-03-13T20:33:39.009Z,4.80
2019-03-13T20:36:07.768Z,3.57
2019-03-13T20:38:36.362Z,3.30
2019-03-13T20:41:04.870Z,2.60
2019-03-13T20:43:33.348Z,3.27
2019-03-13T20:46:01.896Z,2.60
2019-03-13T20:48:30.682Z,4.43
2019-03-13T20:53:52.840Z,2.87
2019-03-13T20:56:21.413Z,2.83
2019-03-13T20:58:49.864Z,2.87
2019-03-13T21:01:18.499Z,2.87
2019-03-13T21:03:47.045Z,3.30
2019-03-13T21:06:20.613Z,3.30
2019-03-13T21:09:25.649Z,2.80
2019-03-13T21:17:55.825Z,3.73
2019-03-13T21:20:24.705Z,2.47
2019-03-13T21:22:53.268Z,2.87
2019-03-13T21:25:23.875Z,3.83
2019-03-13T21:27:52.433Z,2.80
2019-03-13T21:30:28.389Z,3.07
2019-03-13T21:32:57.544Z,3.10
2019-03-13T21:35:37.038Z,2.50
2019-03-13T21:38:05.569Z,2.40
2019-03-13T21:40:34.044Z,2.70
2019-03-13T21:43:04.150Z,2.77
2019-03-13T21:45:40.949Z,3.20
2019-03-13T21:48:03.448Z,2.83
2019-03-13T21:50:32.123Z,2.87
2019-03-13T21:53:05.428Z,2.90
2019-03-13T21:58:21.647Z,2.97
2019-03-13T22:00:50.191Z,3.23
2019-03-13T22:03:27.993Z,3.00
2019-03-13T22:05:50.954Z,3.33
2019-03-13T22:08:19.164Z,2.83
2019-03-13T22:10:47.628Z,3.07
2019-03-13T22:13:16.122Z,3.67
2019-03-13T22:15:44.598Z,3.47
2019-03-13T22:18:13.437Z,5.00
2019-03-13T22:20:41.911Z,3.50
2019-03-13T22:23:10.566Z,2.63
2019-03-13T22:25:39.125Z,3.50
2019-03-13T22:28:07.651Z,3.10
2019-03-13T22:30:36.215Z,4.10
2019-03-13T22:33:04.849Z,3.07
2019-03-13T22:35:33.575Z,3.37
2019-03-13T22:38:02.228Z,3.93
2019-03-13T22:40:30.698Z,3.00
2019-03-13T22:42:59.262Z,4.17
2019-03-13T22:45:27.886Z,3.60
2019-03-13T22:47:56.582Z,3.20
2019-03-13T22:50:25.587Z,3.00
2019-03-13T22:52:54.188Z,4.30
2019-03-13T22:55:22.842Z,3.07
2019-03-13T22:57:51.307Z,2.90
2019-03-13T23:00:30.074Z,2.40
2019-03-13T23:03:12.093Z,2.80
2019-03-13T23:05:40.645Z,2.77
2019-03-13T23:08:09.170Z,2.77
2019-03-13T23:13:36.071Z,3.10
2019-03-13T23:16:04.706Z,4.00
2019-03-13T23:18:33.162Z,2.97
2019-03-13T23:21:01.719Z,2.60
2019-03-13T23:23:45.092Z,2.17
2019-03-13T23:26:13.590Z,3.57
2019-03-13T23:31:28.452Z,3.73
2019-03-13T23:33:57.098Z,2.93
2019-03-13T23:36:25.589Z,3.10
2019-03-13T23:38:54.154Z,3.83
2019-03-13T23:41:22.690Z,2.40
2019-03-13T23:43:55.917Z,2.83
2019-03-13T23:46:24.530Z,2.60
2019-03-13T23:48:53.205Z,2.87
2019-03-13T23:51:21.738Z,2.83
2019-03-13T23:53:50.270Z,3.60
2019-03-13T23:56:18.754Z,3.20
2019-03-13T23:58:47.204Z,2.70
